createdAt,value
2023-05-18T00:02:16.064Z,100.00
2023-05-18T00:05:05.134Z,100.00
2023-05-18T00:07:57.916Z,100.00
2023-05-18T00:10:46.471Z,100.00
2023-05-18T00:13:35.013Z,100.00
2023-05-18T00:16:23.583Z,100.00
2023-05-18T00:19:15.045Z,100.00
2023-05-18T00:22:03.630Z,100.00
2023-05-18T00:24:53.920Z,100.00
2023-05-18T00:27:42.478Z,100.00
2023-05-18T00:30:30.991Z,100.00
2023-05-18T00:33:19.486Z,100.00
2023-05-18T00:36:08.491Z,100.00
2023-05-18T00:38:57.044Z,100.00
2023-05-18T00:41:46.988Z,100.00
2023-05-18T00:44:35.565Z,100.00
2023-05-18T00:47:24.049Z,100.00
2023-05-18T00:50:12.662Z,100.00
2023-05-18T00:53:01.634Z,100.00
2023-05-18T00:55:50.615Z,100.00
2023-05-18T00:58:41.242Z,100.00
2023-05-18T01:01:34.685Z,100.00
2023-05-18T01:04:24.708Z,100.00
2023-05-18T01:07:16.561Z,100.00
2023-05-18T01:10:05.570Z,100.00
2023-05-18T01:12:57.908Z,100.00
2023-05-18T01:15:50.530Z,100.00
2023-05-18T01:18:44.829Z,100.00
2023-05-18T01:21:43.161Z,100.00
2023-05-18T01:24:37.041Z,100.00
2023-05-18T01:27:27.343Z,100.00
2023-05-18T01:30:16.883Z,100.00
2023-05-18T01:33:08.219Z,100.00
2023-05-18T01:35:56.792Z,100.00
2023-05-18T01:38:45.811Z,100.00
2023-05-18T01:41:39.226Z,100.00
2023-05-18T01:44:32.964Z,100.00
2023-05-18T01:47:21.580Z,100.00
2023-05-18T01:50:12.512Z,100.00
2023-05-18T01:53:07.526Z,100.00
2023-05-18T01:56:00.465Z,100.00
2023-05-18T01:58:49.522Z,100.00
2023-05-18T02:01:39.451Z,100.00
2023-05-18T02:04:28.045Z,100.00
2023-05-18T02:07:16.522Z,100.00
2023-05-18T02:10:05.676Z,100.00
2023-05-18T02:12:54.247Z,100.00
2023-05-18T02:15:44.403Z,100.00
2023-05-18T02:18:36.384Z,100.00
2023-05-18T02:21:25.958Z,100.00
2023-05-18T02:24:14.685Z,100.00
2023-05-18T02:27:03.185Z,100.00
2023-05-18T02:29:51.783Z,100.00
2023-05-18T02:32:42.628Z,100.00
2023-05-18T02:35:32.616Z,100.00
2023-05-18T02:38:21.451Z,100.00
2023-05-18T02:41:10.023Z,100.00
2023-05-18T02:43:58.535Z,100.00
2023-05-18T02:46:47.053Z,100.00
2023-05-18T02:49:35.549Z,100.00
2023-05-18T02:52:25.902Z,100.00
2023-05-18T02:55:14.664Z,100.00
2023-05-18T02:58:03.249Z,100.00
2023-05-18T03:00:52.905Z,100.00
2023-05-18T03:03:43.280Z,100.00
2023-05-18T03:06:31.810Z,100.00
2023-05-18T03:09:21.681Z,100.00
2023-05-18T03:12:10.762Z,100.00
2023-05-18T03:14:59.222Z,100.00
2023-05-18T03:17:47.781Z,100.00
2023-05-18T03:20:37.842Z,100.00
2023-05-18T03:23:27.090Z,100.00
2023-05-18T03:26:16.970Z,100.00
2023-05-18T03:29:05.683Z,100.00
2023-05-18T03:31:54.445Z,100.00
2023-05-18T03:34:44.733Z,100.00
2023-05-18T03:37:33.253Z,100.00
2023-05-18T03:40:21.951Z,100.00
2023-05-18T03:43:11.804Z,100.00
2023-05-18T03:46:00.328Z,100.00
2023-05-18T03:48:48.908Z,100.00
2023-05-18T03:51:37.654Z,100.00
2023-05-18T03:54:26.241Z,100.00
2023-05-18T03:57:14.750Z,100.00
2023-05-18T04:00:07.777Z,100.00
2023-05-18T04:02:57.070Z,100.00
2023-05-18T04:05:45.959Z,100.00
2023-05-18T04:08:34.582Z,100.00
2023-05-18T04:11:23.412Z,100.00
2023-05-18T04:14:12.413Z,100.00
2023-05-18T04:17:04.904Z,100.00
2023-05-18T04:19:53.692Z,100.00
2023-05-18T04:22:46.488Z,100.00
2023-05-18T04:25:35.206Z,100.00
2023-05-18T04:28:23.753Z,100.00
2023-05-18T04:31:14.385Z,100.00
2023-05-18T04:34:04.494Z,100.00
2023-05-18T04:36:54.523Z,100.00
2023-05-18T04:39:43.480Z,100.00
2023-05-18T04:42:32.059Z,100.00
2023-05-18T04:45:22.082Z,100.00
2023-05-18T04:48:10.832Z,100.00
2023-05-18T04:51:01.469Z,100.00
2023-05-18T04:53:51.124Z,100.00
2023-05-18T04:56:39.944Z,100.00
2023-05-18T04:59:28.986Z,100.00
2023-05-18T05:02:18.116Z,100.00
2023-05-18T05:05:07.351Z,100.00
2023-05-18T05:07:57.565Z,100.00
2023-05-18T05:10:46.509Z,100.00
2023-05-18T05:13:36.221Z,99.89
2023-05-18T05:16:24.900Z,97.79
2023-05-18T05:19:13.543Z,94.74
2023-05-18T05:22:02.098Z,91.26
2023-05-18T05:24:51.893Z,88.89
2023-05-18T05:27:40.652Z,85.98
2023-05-18T05:30:29.255Z,85.51
2023-05-18T05:33:18.670Z,83.52
2023-05-18T05:36:08.236Z,81.01
2023-05-18T05:38:56.691Z,80.38
2023-05-18T05:41:46.568Z,79.32
2023-05-18T05:44:35.087Z,77.79
2023-05-18T05:47:24.280Z,78.47
2023-05-18T05:50:12.819Z,76.16
2023-05-18T05:53:01.533Z,75.59
2023-05-18T05:55:50.097Z,75.40
2023-05-18T05:58:39.988Z,72.66
2023-05-18T06:01:29.076Z,72.50
2023-05-18T06:04:17.602Z,72.62
2023-05-18T06:07:06.390Z,71.99
2023-05-18T06:09:55.273Z,72.08
2023-05-18T06:12:44.061Z,71.44
2023-05-18T06:15:34.148Z,70.51
2023-05-18T06:18:22.650Z,69.75
2023-05-18T06:21:11.174Z,69.66
2023-05-18T06:24:01.319Z,68.77
2023-05-18T06:26:49.982Z,68.27
2023-05-18T06:29:38.484Z,68.96
2023-05-18T06:32:28.520Z,66.91
2023-05-18T06:35:17.142Z,66.89
2023-05-18T06:38:05.813Z,66.62
2023-05-18T06:40:54.392Z,66.63
2023-05-18T06:43:42.953Z,66.74
2023-05-18T06:46:31.705Z,66.01
2023-05-18T06:49:21.647Z,65.66
2023-05-18T06:52:10.256Z,65.00
2023-05-18T06:55:01.239Z,65.26
2023-05-18T06:57:49.768Z,63.69
2023-05-18T07:00:38.798Z,63.67
2023-05-18T07:03:28.170Z,63.73
2023-05-18T07:06:18.024Z,63.15
2023-05-18T07:09:08.065Z,62.69
2023-05-18T07:11:56.611Z,62.03
2023-05-18T07:14:45.096Z,60.46
2023-05-18T07:17:33.677Z,59.66
2023-05-18T07:20:23.643Z,59.73
2023-05-18T07:23:15.820Z,59.48
2023-05-18T07:26:04.429Z,57.76
2023-05-18T07:28:52.920Z,57.88
2023-05-18T07:31:41.989Z,58.75
2023-05-18T07:34:30.513Z,58.42
2023-05-18T07:37:19.054Z,57.47
2023-05-18T07:40:10.658Z,56.80
2023-05-18T07:42:59.202Z,57.70
2023-05-18T07:45:47.696Z,59.59
2023-05-18T07:48:37.493Z,57.33
2023-05-18T07:51:27.394Z,56.25
2023-05-18T07:54:15.921Z,57.00
2023-05-18T07:57:06.620Z,56.51
2023-05-18T07:59:55.092Z,56.21
2023-05-18T08:02:44.943Z,55.11
2023-05-18T08:05:34.086Z,55.10
2023-05-18T08:08:22.769Z,53.73
2023-05-18T08:11:11.263Z,55.42
2023-05-18T08:14:01.526Z,55.97
2023-05-18T08:16:50.316Z,56.33
2023-05-18T08:19:41.128Z,56.08
2023-05-18T08:22:30.394Z,54.78
2023-05-18T08:25:18.944Z,56.37
2023-05-18T08:28:07.466Z,55.48
2023-05-18T08:30:57.424Z,54.52
2023-05-18T08:33:46.014Z,54.21
2023-05-18T08:36:35.516Z,54.89
2023-05-18T08:39:24.275Z,55.45
2023-05-18T08:42:17.725Z,54.11
2023-05-18T08:45:13.062Z,53.98
2023-05-18T08:48:04.581Z,54.74
2023-05-18T08:50:54.890Z,53.68
2023-05-18T08:53:43.750Z,53.32
2023-05-18T08:56:34.282Z,53.57
2023-05-18T08:59:26.063Z,53.35
2023-05-18T09:02:14.773Z,53.50
2023-05-18T09:05:05.177Z,51.86
2023-05-18T09:07:53.816Z,51.66
2023-05-18T09:10:42.387Z,52.18
2023-05-18T09:13:31.279Z,51.67
2023-05-18T09:16:20.125Z,51.96
2023-05-18T09:19:08.735Z,51.43
2023-05-18T09:21:58.641Z,49.92
2023-05-18T09:24:47.473Z,50.82
2023-05-18T09:27:36.048Z,49.37
2023-05-18T09:30:26.152Z,49.07
2023-05-18T09:33:19.134Z,49.06
2023-05-18T09:36:09.072Z,48.90
2023-05-18T09:38:59.016Z,48.79
2023-05-18T09:41:47.566Z,48.33
2023-05-18T09:44:36.280Z,49.25
2023-05-18T09:47:24.830Z,50.23
2023-05-18T09:50:13.509Z,49.04
2023-05-18T09:53:01.944Z,48.16
2023-05-18T09:55:51.850Z,47.89
2023-05-18T09:58:40.549Z,46.76
2023-05-18T10:01:30.158Z,46.79
2023-05-18T10:04:21.548Z,46.64
2023-05-18T10:07:13.622Z,46.50
2023-05-18T10:10:03.784Z,46.02
2023-05-18T10:12:54.340Z,46.97
2023-05-18T10:15:48.616Z,47.34
2023-05-18T10:18:38.113Z,48.07
2023-05-18T10:21:29.804Z,46.62
2023-05-18T10:24:20.334Z,44.35
2023-05-18T10:27:11.125Z,43.71
2023-05-18T10:30:03.771Z,45.05
2023-05-18T10:32:52.594Z,43.42
2023-05-18T10:35:41.384Z,44.39
2023-05-18T10:38:43.904Z,44.18
2023-05-18T10:41:33.478Z,45.29
2023-05-18T10:44:25.231Z,45.01
2023-05-18T10:47:16.116Z,44.53
2023-05-18T10:50:05.717Z,44.59
2023-05-18T10:52:54.515Z,46.30
2023-05-18T10:55:43.061Z,44.71
2023-05-18T10:58:32.615Z,46.17
2023-05-18T11:01:21.296Z,45.53
2023-05-18T11:04:11.190Z,43.18
2023-05-18T11:07:00.701Z,45.40
2023-05-18T11:09:50.221Z,44.00
2023-05-18T11:12:39.500Z,43.23
2023-05-18T11:16:00.722Z,42.36
2023-05-18T11:18:50.391Z,43.90
2023-05-18T11:21:54.117Z,44.27
2023-05-18T11:24:42.775Z,42.38
2023-05-18T11:27:34.420Z,42.85
2023-05-18T11:30:28.488Z,43.43
2023-05-18T11:33:19.356Z,43.85
2023-05-18T11:36:11.717Z,43.42
2023-05-18T11:39:06.756Z,44.81
2023-05-18T11:42:01.979Z,42.62
2023-05-18T11:44:55.559Z,42.23
2023-05-18T11:47:44.237Z,43.45
2023-05-18T11:50:33.389Z,43.31
2023-05-18T11:53:24.262Z,42.99
2023-05-18T11:56:14.191Z,41.53
2023-05-18T11:59:16.004Z,41.53
2023-05-18T12:02:05.111Z,42.05
2023-05-18T12:04:54.742Z,41.71
2023-05-18T12:07:44.859Z,43.10
2023-05-18T12:10:36.736Z,41.80
2023-05-18T12:13:28.189Z,41.09
2023-05-18T12:16:16.827Z,42.35
2023-05-18T12:19:05.468Z,42.40
2023-05-18T12:21:54.183Z,41.88
2023-05-18T12:24:43.667Z,41.32
2023-05-18T12:27:32.463Z,40.30
2023-05-18T12:30:24.672Z,39.81
2023-05-18T12:33:13.488Z,41.48
2023-05-18T12:36:02.129Z,41.03
2023-05-18T12:38:51.588Z,40.62
2023-05-18T12:41:40.082Z,40.84
2023-05-18T12:44:28.626Z,40.04
2023-05-18T12:47:18.501Z,41.07
2023-05-18T12:50:08.046Z,39.76
2023-05-18T12:52:57.358Z,39.05
2023-05-18T12:55:45.888Z,40.06
2023-05-18T12:58:34.494Z,40.64
2023-05-18T13:01:24.954Z,39.55
2023-05-18T13:04:15.312Z,40.45
2023-05-18T13:07:04.011Z,38.49
2023-05-18T13:09:52.523Z,39.19
2023-05-18T13:12:43.492Z,37.36
2023-05-18T13:15:35.669Z,37.80
2023-05-18T13:18:24.347Z,39.14
2023-05-18T13:21:14.169Z,37.55
2023-05-18T13:24:03.164Z,38.35
2023-05-18T13:26:51.762Z,38.12
2023-05-18T13:29:40.267Z,37.43
2023-05-18T13:32:28.847Z,38.02
2023-05-18T13:35:18.467Z,37.84
2023-05-18T13:38:08.373Z,37.98
2023-05-18T13:40:56.910Z,37.89
2023-05-18T13:43:45.411Z,37.20
2023-05-18T13:46:37.737Z,37.31
2023-05-18T13:49:27.071Z,38.31
2023-05-18T13:52:15.573Z,37.60
2023-05-18T13:55:07.537Z,37.91
2023-05-18T13:57:56.501Z,37.46
2023-05-18T14:00:46.739Z,36.89
2023-05-18T14:03:36.544Z,36.56
2023-05-18T14:06:27.534Z,36.98
2023-05-18T14:09:16.071Z,37.97
2023-05-18T14:12:06.812Z,38.03
2023-05-18T14:14:55.453Z,38.86
2023-05-18T14:17:45.371Z,36.61
2023-05-18T14:20:34.218Z,36.83
2023-05-18T14:23:24.306Z,36.93
2023-05-18T14:26:12.890Z,37.71
2023-05-18T14:29:02.918Z,38.51
2023-05-18T14:31:51.589Z,37.49
2023-05-18T14:34:40.146Z,37.52
2023-05-18T14:37:28.841Z,36.97
2023-05-18T14:40:17.419Z,38.44
2023-05-18T14:43:05.986Z,38.13
2023-05-18T14:46:07.454Z,37.65
2023-05-18T14:48:57.472Z,37.78
2023-05-18T14:51:46.137Z,38.14
2023-05-18T14:54:34.716Z,38.45
2023-05-18T14:57:24.797Z,37.83
2023-05-18T15:00:16.242Z,37.67
2023-05-18T15:03:06.209Z,37.66
2023-05-18T15:05:54.809Z,36.90
2023-05-18T15:08:43.325Z,38.31
2023-05-18T15:11:31.855Z,37.75
2023-05-18T15:14:21.477Z,37.64
2023-05-18T15:17:10.070Z,37.23
2023-05-18T15:19:59.927Z,37.70
2023-05-18T15:22:48.473Z,37.39
2023-05-18T15:25:37.063Z,37.59
2023-05-18T15:28:25.923Z,37.92
2023-05-18T15:31:14.481Z,37.55
2023-05-18T15:34:03.160Z,37.52
2023-05-18T15:36:53.395Z,38.11
2023-05-18T15:39:42.128Z,37.83
2023-05-18T15:42:30.998Z,38.30
2023-05-18T15:45:19.562Z,37.53
2023-05-18T15:48:08.254Z,36.65
2023-05-18T15:50:56.865Z,38.59
2023-05-18T15:53:46.734Z,37.69
2023-05-18T15:56:35.295Z,36.75
2023-05-18T15:59:23.822Z,37.78
2023-05-18T16:02:12.377Z,36.99
2023-05-18T16:05:00.930Z,37.33
2023-05-18T16:07:49.414Z,37.71
2023-05-18T16:10:39.325Z,37.44
2023-05-18T16:13:27.980Z,37.49
2023-05-18T16:16:16.518Z,37.28
2023-05-18T16:19:07.117Z,37.68
2023-05-18T16:21:56.692Z,37.75
2023-05-18T16:24:45.219Z,37.58
2023-05-18T16:27:35.109Z,37.16
2023-05-18T16:30:23.696Z,38.05
2023-05-18T16:33:12.292Z,37.78
2023-05-18T16:36:01.048Z,38.30
2023-05-18T16:38:49.518Z,37.69
2023-05-18T16:41:38.225Z,37.80
2023-05-18T16:44:28.232Z,37.60
2023-05-18T16:47:16.770Z,37.55
2023-05-18T16:50:05.930Z,38.02
2023-05-18T16:52:54.715Z,37.70
2023-05-18T16:55:43.318Z,36.99
2023-05-18T16:58:31.925Z,37.53
2023-05-18T17:01:28.135Z,37.83
2023-05-18T17:04:17.823Z,38.74
2023-05-18T17:07:06.686Z,37.68
2023-05-18T17:09:55.218Z,37.05
2023-05-18T17:12:43.737Z,37.91
2023-05-18T17:15:33.053Z,38.02
2023-05-18T17:18:22.995Z,37.87
2023-05-18T17:21:11.520Z,38.50
2023-05-18T17:24:00.107Z,38.41
2023-05-18T17:26:48.623Z,38.72
2023-05-18T17:29:37.159Z,38.79
2023-05-18T17:32:25.994Z,39.34
2023-05-18T17:35:16.057Z,39.22
2023-05-18T17:38:04.601Z,39.37
2023-05-18T17:40:53.063Z,39.52
2023-05-18T17:43:41.581Z,40.20
2023-05-18T17:46:30.172Z,40.68
2023-05-18T17:49:18.921Z,40.34
2023-05-18T17:52:08.865Z,41.09
2023-05-18T17:54:57.779Z,40.87
2023-05-18T17:57:46.615Z,41.29
2023-05-18T18:00:35.310Z,41.15
2023-05-18T18:03:23.976Z,41.54
2023-05-18T18:06:12.685Z,41.38
2023-05-18T18:09:04.593Z,41.23
2023-05-18T18:11:53.177Z,41.73
2023-05-18T18:14:41.730Z,41.74
2023-05-18T18:17:30.460Z,42.51
2023-05-18T18:20:19.022Z,42.74
2023-05-18T18:23:07.730Z,43.02
2023-05-18T18:25:57.762Z,44.25
2023-05-18T18:28:46.358Z,43.58
2023-05-18T18:31:34.996Z,44.21
2023-05-18T18:34:23.675Z,44.71
2023-05-18T18:37:12.713Z,44.57
2023-05-18T18:40:01.493Z,44.56
2023-05-18T18:42:51.384Z,44.98
2023-05-18T18:45:40.218Z,46.58
2023-05-18T18:48:28.796Z,46.16
2023-05-18T18:51:17.343Z,45.94
2023-05-18T18:54:06.145Z,46.53
2023-05-18T18:56:54.654Z,46.71
2023-05-18T18:59:44.582Z,46.30
2023-05-18T19:02:33.200Z,47.01
2023-05-18T19:05:23.543Z,48.01
2023-05-18T19:08:12.252Z,47.85
2023-05-18T19:11:00.875Z,47.67
2023-05-18T19:13:49.401Z,47.97
2023-05-18T19:16:39.400Z,48.02
2023-05-18T19:19:30.659Z,48.66
2023-05-18T19:22:19.221Z,49.54
2023-05-18T19:25:08.131Z,49.52
2023-05-18T19:27:56.633Z,50.93
2023-05-18T19:30:45.235Z,50.77
2023-05-18T19:33:35.488Z,50.91
2023-05-18T19:36:24.015Z,52.16
2023-05-18T19:39:12.572Z,52.29
2023-05-18T19:42:01.139Z,53.15
2023-05-18T19:44:49.727Z,54.33
2023-05-18T19:47:38.305Z,55.51
2023-05-18T19:50:28.293Z,55.31
2023-05-18T19:53:16.854Z,56.61
2023-05-18T19:56:05.495Z,55.97
2023-05-18T19:58:54.038Z,55.78
2023-05-18T20:01:42.654Z,56.26
2023-05-18T20:04:31.503Z,56.70
2023-05-18T20:07:22.492Z,56.81
2023-05-18T20:10:11.650Z,57.51
2023-05-18T20:13:00.271Z,58.57
2023-05-18T20:15:49.744Z,59.55
2023-05-18T20:18:38.363Z,59.80
2023-05-18T20:21:27.075Z,60.42
2023-05-18T20:24:17.021Z,61.54
2023-05-18T20:27:05.890Z,62.36
2023-05-18T20:29:55.952Z,63.49
2023-05-18T20:32:44.763Z,64.37
2023-05-18T20:35:33.864Z,65.71
2023-05-18T20:38:25.916Z,66.40
2023-05-18T20:41:17.763Z,67.07
2023-05-18T20:44:07.287Z,67.82
2023-05-18T20:46:55.885Z,68.17
2023-05-18T20:49:44.428Z,68.35
2023-05-18T20:52:32.970Z,68.88
2023-05-18T20:55:21.559Z,70.01
2023-05-18T20:58:11.489Z,70.80
2023-05-18T21:01:06.736Z,70.60
2023-05-18T21:03:57.702Z,70.45
2023-05-18T21:06:46.291Z,70.89
2023-05-18T21:09:34.851Z,71.51
2023-05-18T21:12:23.374Z,72.01
2023-05-18T21:15:13.522Z,72.17
2023-05-18T21:18:02.049Z,72.44
2023-05-18T21:20:50.672Z,71.68
2023-05-18T21:23:39.161Z,70.59
2023-05-18T21:26:27.891Z,70.07
2023-05-18T21:29:16.557Z,69.42
2023-05-18T21:32:06.828Z,69.51
2023-05-18T21:34:55.789Z,70.37
2023-05-18T21:37:44.326Z,68.97
2023-05-18T21:40:33.136Z,68.23
2023-05-18T21:43:21.976Z,67.92
2023-05-18T21:46:10.559Z,67.36
2023-05-18T21:49:01.656Z,67.58
2023-05-18T21:51:50.542Z,67.74
2023-05-18T21:54:39.302Z,67.46
2023-05-18T21:57:27.851Z,67.10
2023-05-18T22:00:18.110Z,66.37
2023-05-18T22:03:06.701Z,65.61
2023-05-18T22:05:56.680Z,65.39
2023-05-18T22:08:45.472Z,64.54
2023-05-18T22:11:34.051Z,64.36
2023-05-18T22:14:22.628Z,63.54
2023-05-18T22:17:11.235Z,62.89
2023-05-18T22:19:59.844Z,62.18
2023-05-18T22:22:49.786Z,61.82
2023-05-18T22:25:38.419Z,61.75
2023-05-18T22:28:26.993Z,61.39
2023-05-18T22:31:15.716Z,61.33
2023-05-18T22:34:04.289Z,61.30
2023-05-18T22:36:52.903Z,61.50
2023-05-18T22:39:43.656Z,62.39
2023-05-18T22:42:32.197Z,61.79
2023-05-18T22:45:20.817Z,61.36
2023-05-18T22:48:09.348Z,61.71
2023-05-18T22:51:00.717Z,62.26
2023-05-18T22:53:49.269Z,61.78
2023-05-18T22:56:39.213Z,61.86
2023-05-18T22:59:28.702Z,62.38
2023-05-18T23:02:17.257Z,62.58
2023-05-18T23:05:06.400Z,62.85
2023-05-18T23:07:57.672Z,64.03
2023-05-18T23:10:46.190Z,64.93
2023-05-18T23:13:37.599Z,65.00
2023-05-18T23:16:26.615Z,65.45
2023-05-18T23:19:18.382Z,65.23
2023-05-18T23:22:07.022Z,66.06
2023-05-18T23:24:55.543Z,65.70
2023-05-18T23:27:44.978Z,66.30
2023-05-18T23:30:34.975Z,67.39
2023-05-18T23:33:24.169Z,67.69
2023-05-18T23:36:14.681Z,67.87
2023-05-18T23:39:03.606Z,68.21
2023-05-18T23:41:53.179Z,68.42
2023-05-18T23:44:42.400Z,68.70
2023-05-18T23:47:32.732Z,68.89
2023-05-18T23:50:22.417Z,69.32
2023-05-18T23:53:13.273Z,69.68
2023-05-18T23:56:02.177Z,70.73
2023-05-18T23:58:51.105Z,70.23
